Time;durP1;ratioP1;P1;durP2;ratioP2;P2;SDS_P1;SDS_P2;PMS_P1;PMS_P2;Temp;Humidity;BMP_temperature;BMP_pressure;BME280_temperature;BME280_humidity;BME280_pressure;Samples;Min_cycle;Max_cycle;Signal;HPM_P1;HPM_P2
2023/03/03 00:01:59;;;;;;;40.83;34.30;;;6.20;46.90;;;;;;20559;6828;308116;-74
2023/03/03 00:04:24;;;;;;;38.75;34.20;;;6.50;46.40;;;;;;20565;6828;309530;-74
2023/03/03 00:06:50;;;;;;;40.10;34.97;;;6.80;46.00;;;;;;20566;6828;278158;-75
2023/03/03 00:09:18;;;;;;;38.00;30.10;;;6.90;46.00;;;;;;20744;6828;117827;-75
2023/03/03 00:11:43;;;;;;;37.85;33.20;;;6.80;45.50;;;;;;20547;6829;337575;-74
2023/03/03 00:14:25;;;;;;;41.00;35.10;;;6.80;45.70;;;;;;20539;6829;278641;-75
2023/03/03 00:16:51;;;;;;;40.40;29.60;;;7.00;45.40;;;;;;20757;6829;117348;-74
2023/03/03 00:19:17;;;;;;;41.23;33.63;;;6.70;45.80;;;;;;20535;6829;311433;-74
2023/03/03 00:21:47;;;;;;;38.00;30.37;;;6.70;45.80;;;;;;20761;6829;121162;-71
2023/03/03 00:24:13;;;;;;;40.87;29.23;;;6.30;46.70;;;;;;20759;6829;118033;-74
2023/03/03 00:26:38;;;;;;;41.97;34.93;;;6.40;46.30;;;;;;20564;6829;308697;-74
2023/03/03 00:29:24;;;;;;;35.57;27.90;;;6.40;46.30;;;;;;20647;6829;118875;-74
2023/03/03 00:31:49;;;;;;;40.03;28.50;;;6.40;46.20;;;;;;20733;6829;117474;-74
2023/03/03 00:34:25;;;;;;;40.50;33.67;;;6.10;46.50;;;;;;20557;6829;314112;-74
2023/03/03 00:36:51;;;;;;;40.95;35.00;;;6.30;46.80;;;;;;20554;6829;308589;-73
2023/03/03 00:39:23;;;;;;;37.00;28.67;;;6.60;46.30;;;;;;20742;6829;120107;-75
2023/03/03 00:41:49;;;;;;;36.63;28.67;;;6.60;46.10;;;;;;20753;6829;117563;-74
2023/03/03 00:44:41;;;;;;;40.83;34.28;;;6.30;46.20;;;;;;20551;6829;307575;-74
2023/03/03 00:47:29;;;;;;;39.57;28.07;;;6.40;46.20;;;;;;20747;6827;121546;-73
2023/03/03 00:50:06;;;;;;;37.77;28.07;;;6.30;46.10;;;;;;20765;6828;118257;-73
2023/03/03 00:52:32;;;;;;;37.73;26.33;;;5.80;46.80;;;;;;20484;6828;117986;-75
2023/03/03 00:54:58;;;;;;;38.15;33.13;;;5.80;46.80;;;;;;20534;6828;344711;-74
2023/03/03 00:57:23;;;;;;;38.90;34.65;;;5.90;47.20;;;;;;20569;6828;307252;-74
2023/03/03 00:59:49;;;;;;;37.58;32.92;;;6.20;46.80;;;;;;20554;6828;280538;-73
2023/03/03 01:02:15;;;;;;;39.83;33.80;;;6.50;46.30;;;;;;20528;6828;313983;-73
2023/03/03 01:04:41;;;;;;;40.27;34.50;;;6.70;45.80;;;;;;20527;6828;309028;-73
2023/03/03 01:07:07;;;;;;;35.93;29.63;;;6.80;45.20;;;;;;20733;6828;117814;-74
2023/03/03 01:09:33;;;;;;;37.70;25.75;;;6.50;45.20;;;;;;20723;6828;119070;-73
2023/03/03 01:11:58;;;;;;;41.90;34.70;;;6.10;45.60;;;;;;20552;6828;308040;-73
2023/03/03 01:14:24;;;;;;;42.73;35.27;;;6.10;46.20;;;;;;20548;6828;307282;-73
2023/03/03 01:16:50;;;;;;;37.33;28.97;;;6.10;46.50;;;;;;20766;6828;117825;-73
2023/03/03 01:19:16;;;;;;;38.07;33.13;;;6.10;45.80;;;;;;20515;6828;323576;-74
2023/03/03 01:21:41;;;;;;;34.57;28.83;;;6.10;46.40;;;;;;20770;6828;121769;-73
2023/03/03 01:24:08;;;;;;;41.10;34.77;;;5.90;46.40;;;;;;20549;6829;278120;-73
2023/03/03 01:26:33;;;;;;;41.90;34.42;;;6.00;46.50;;;;;;20552;6829;338849;-73
2023/03/03 01:29:00;;;;;;;39.80;29.73;;;6.20;47.00;;;;;;20750;6829;117389;-74
2023/03/03 01:31:27;;;;;;;36.35;32.38;;;6.00;46.20;;;;;;20554;6829;278492;-75
2023/03/03 01:33:53;;;;;;;35.37;27.13;;;6.00;46.60;;;;;;20766;6829;117794;-73
2023/03/03 01:36:22;;;;;;;34.70;27.58;;;5.80;46.50;;;;;;20754;6829;117440;-73
2023/03/03 01:38:47;;;;;;;40.03;33.85;;;5.50;47.40;;;;;;20548;6829;311880;-73
2023/03/03 01:41:13;;;;;;;41.53;28.97;;;5.60;47.30;;;;;;20752;6829;118177;-74
2023/03/03 01:43:38;;;;;;;42.88;35.63;;;5.60;47.10;;;;;;20571;6829;286914;-74
2023/03/03 01:46:04;;;;;;;44.05;35.75;;;5.70;47.30;;;;;;20534;6829;340103;-74
2023/03/03 01:48:39;;;;;;;40.33;30.00;;;6.00;46.90;;;;;;20765;6829;117840;-74
2023/03/03 01:51:04;;;;;;;38.27;27.87;;;5.80;46.60;;;;;;20741;6829;119541;-74
2023/03/03 01:53:33;;;;;;;39.03;28.07;;;5.50;46.90;;;;;;20733;6829;118243;-74
2023/03/03 01:55:59;;;;;;;36.67;26.47;;;5.30;47.30;;;;;;20763;6829;117317;-73
2023/03/03 01:58:24;;;;;;;41.70;34.40;;;5.10;47.60;;;;;;20558;6827;277619;-74
2023/03/03 02:00:50;;;;;;;37.30;28.60;;;5.20;48.00;;;;;;20738;6828;119494;-74
2023/03/03 02:03:15;;;;;;;40.83;28.37;;;5.20;47.70;;;;;;20749;6828;117412;-74
2023/03/03 02:05:41;;;;;;;35.57;25.53;;;5.00;47.70;;;;;;20770;6828;117587;-74
2023/03/03 02:08:07;;;;;;;37.00;25.73;;;4.90;48.00;;;;;;20774;6828;117671;-74
2023/03/03 02:10:32;;;;;;;32.97;25.77;;;4.70;48.20;;;;;;20751;6828;117265;-74
2023/03/03 02:12:59;;;;;;;41.40;33.87;;;4.60;48.30;;;;;;20525;6828;308699;-74
2023/03/03 02:15:28;;;;;;;39.83;34.55;;;4.80;48.80;;;;;;20555;6828;278408;-74
2023/03/03 02:17:53;;;;;;;40.20;34.97;;;5.20;48.30;;;;;;20526;6828;281656;-74
2023/03/03 02:20:19;;;;;;;38.00;29.00;;;5.50;47.50;;;;;;20734;6828;117378;-74
2023/03/03 02:23:11;;;;;;;37.58;32.08;;;5.40;47.30;;;;;;20517;6828;340395;-74
2023/03/03 02:26:06;;;;;;;39.65;33.08;;;5.40;47.40;;;;;;20544;6828;336287;-74
2023/03/03 02:28:32;;;;;;;40.93;35.87;;;5.70;47.20;;;;;;20555;6828;311318;-75
2023/03/03 02:30:58;;;;;;;39.73;29.33;;;5.90;46.70;;;;;;20749;6828;117541;-75
2023/03/03 02:33:23;;;;;;;39.33;33.50;;;5.70;46.70;;;;;;20553;6828;297997;-75
2023/03/03 02:35:49;;;;;;;42.25;35.17;;;5.70;47.10;;;;;;20552;6829;278181;-74
2023/03/03 02:38:24;;;;;;;43.58;36.35;;;5.90;47.00;;;;;;20558;6829;286267;-75
2023/03/03 02:41:16;;;;;;;41.00;30.33;;;6.10;46.70;;;;;;20744;6829;121582;-74
2023/03/03 02:43:51;;;;;;;40.72;34.97;;;5.90;46.60;;;;;;20548;6829;284063;-74
2023/03/03 02:46:17;;;;;;;38.10;29.13;;;5.80;46.90;;;;;;20755;6829;117316;-74
2023/03/03 02:48:42;;;;;;;39.63;29.53;;;5.70;46.90;;;;;;20763;6829;117961;-74
2023/03/03 02:51:09;;;;;;;42.03;29.00;;;5.40;47.40;;;;;;20747;6829;117441;-74
2023/03/03 02:53:34;;;;;;;42.30;35.65;;;5.10;47.70;;;;;;20557;6829;287357;-73
2023/03/03 02:56:00;;;;;;;38.50;28.40;;;5.20;48.20;;;;;;20766;6829;117847;-73
2023/03/03 02:58:25;;;;;;;42.03;34.43;;;5.30;48.00;;;;;;20549;6829;338071;-73
2023/03/03 03:00:51;;;;;;;41.97;35.93;;;5.40;48.10;;;;;;20552;6829;337680;-74
2023/03/03 03:03:17;;;;;;;40.03;30.23;;;5.70;47.80;;;;;;20742;6829;117485;-73
2023/03/03 03:05:43;;;;;;;41.30;35.10;;;5.70;47.80;;;;;;20553;6829;308410;-74
2023/03/03 03:08:09;;;;;;;40.85;33.53;;;6.00;47.60;;;;;;20555;6829;341049;-74
2023/03/03 03:10:36;;;;;;;40.50;31.30;;;6.00;47.60;;;;;;20774;6827;117187;-73
2023/03/03 03:13:02;;;;;;;37.97;29.27;;;5.90;47.40;;;;;;20749;6828;117652;-74
2023/03/03 03:15:28;;;;;;;43.27;36.33;;;5.70;47.60;;;;;;20551;6828;305007;-73
2023/03/03 03:17:53;;;;;;;38.10;28.67;;;5.70;48.20;;;;;;20761;6828;117875;-74
2023/03/03 03:20:19;;;;;;;39.85;28.48;;;5.60;48.00;;;;;;20761;6828;118209;-76
2023/03/03 03:22:45;;;;;;;43.03;35.90;;;5.50;47.90;;;;;;20551;6828;278180;-74
2023/03/03 03:25:11;;;;;;;41.25;34.45;;;6.00;47.70;;;;;;20533;6828;278174;-74
2023/03/03 03:27:37;;;;;;;37.73;28.60;;;5.90;47.60;;;;;;20765;6828;118639;-74
2023/03/03 03:30:03;;;;;;;37.73;28.10;;;5.90;47.40;;;;;;20765;6828;118179;-74
2023/03/03 03:32:28;;;;;;;40.97;33.50;;;5.70;47.70;;;;;;20549;6828;345618;-74
2023/03/03 03:34:54;;;;;;;41.47;34.87;;;5.80;47.90;;;;;;20559;6828;336688;-74
2023/03/03 03:37:19;;;;;;;40.05;35.28;;;6.10;47.30;;;;;;20538;6828;283129;-74
2023/03/03 03:39:47;;;;;;;41.65;36.65;;;6.60;46.70;;;;;;20566;6828;278098;-74
2023/03/03 03:42:13;;;;;;;39.07;33.97;;;6.50;46.60;;;;;;20550;6828;277699;-74
2023/03/03 03:44:38;;;;;;;35.43;27.73;;;6.70;46.50;;;;;;20760;6828;117631;-74
2023/03/03 03:47:04;;;;;;;37.17;27.87;;;6.50;46.40;;;;;;20729;6829;118005;-74
2023/03/03 03:49:29;;;;;;;37.28;27.33;;;6.10;46.70;;;;;;20770;6829;117625;-74
2023/03/03 03:51:55;;;;;;;37.30;27.17;;;5.80;47.10;;;;;;20770;6829;117872;-73
2023/03/03 03:54:21;;;;;;;40.83;33.90;;;5.60;47.50;;;;;;20559;6829;278262;-74
2023/03/03 03:56:46;;;;;;;38.53;28.80;;;5.60;47.60;;;;;;20775;6829;120801;-74
2023/03/03 03:59:12;;;;;;;37.38;27.65;;;5.50;47.30;;;;;;20755;6829;119641;-74
2023/03/03 04:01:37;;;;;;;35.87;26.00;;;5.30;47.50;;;;;;20767;6829;117958;-74
2023/03/03 04:04:03;;;;;;;34.40;26.92;;;5.10;47.70;;;;;;20764;6829;117369;-73
2023/03/03 04:06:28;;;;;;;35.43;26.77;;;5.00;48.00;;;;;;20651;6829;67335;-74
2023/03/03 04:08:56;;;;;;;41.27;34.33;;;4.80;48.20;;;;;;20521;6829;310891;-74
2023/03/03 04:11:21;;;;;;;42.37;35.40;;;5.00;48.80;;;;;;20566;6829;308482;-74
2023/03/03 04:13:47;;;;;;;42.33;35.30;;;5.40;48.40;;;;;;20542;6829;307619;-74
2023/03/03 04:16:12;;;;;;;39.40;28.65;;;5.60;47.80;;;;;;20765;6829;117233;-73
2023/03/03 04:18:38;;;;;;;41.13;33.03;;;5.60;47.60;;;;;;20560;6829;292527;-75
2023/03/03 04:21:04;;;;;;;41.13;34.87;;;5.60;47.80;;;;;;20534;6827;307689;-74
2023/03/03 04:23:29;;;;;;;43.87;36.00;;;5.80;47.50;;;;;;20554;6828;313481;-74
2023/03/03 04:25:55;;;;;;;41.45;36.40;;;6.00;47.10;;;;;;20543;6828;337185;-74
2023/03/03 04:28:24;;;;;;;39.70;29.42;;;6.00;46.80;;;;;;20751;6828;117429;-76
2023/03/03 04:30:48;;;;;;;40.33;28.53;;;6.00;46.80;;;;;;20749;6828;117434;-77
2023/03/03 04:33:16;;;;;;;36.47;26.67;;;5.30;47.80;;;;;;20730;6828;117964;-77
2023/03/03 04:35:41;;;;;;;37.40;27.30;;;5.30;47.70;;;;;;20752;6828;117922;-79
2023/03/03 04:38:07;;;;;;;35.65;26.42;;;5.10;48.10;;;;;;20756;6828;117416;-77
2023/03/03 04:40:33;;;;;;;43.17;34.77;;;5.00;48.70;;;;;;20547;6828;307648;-77
2023/03/03 04:43:00;;;;;;;42.47;35.90;;;5.40;49.10;;;;;;20527;6828;337805;-77
2023/03/03 04:45:25;;;;;;;39.27;29.80;;;5.40;48.50;;;;;;20781;6828;117604;-77
2023/03/03 04:47:51;;;;;;;40.03;29.57;;;5.30;48.10;;;;;;20769;6828;117375;-75
2023/03/03 04:50:16;;;;;;;42.70;34.33;;;5.20;48.30;;;;;;20551;6828;311822;-74
2023/03/03 04:52:43;;;;;;;41.90;35.90;;;5.50;48.30;;;;;;20552;6828;311416;-74
2023/03/03 04:55:08;;;;;;;39.47;30.20;;;5.50;48.30;;;;;;20719;6828;117646;-74
2023/03/03 04:57:34;;;;;;;36.87;27.17;;;5.50;48.10;;;;;;20750;6828;117512;-74
2023/03/03 04:59:59;;;;;;;40.78;34.72;;;5.20;48.30;;;;;;20447;6829;278032;-74
2023/03/03 05:02:27;;;;;;;41.33;29.70;;;5.30;49.00;;;;;;20777;6829;117430;-75
2023/03/03 05:04:52;;;;;;;39.93;28.77;;;5.30;48.60;;;;;;20674;6829;118998;-73
2023/03/03 05:07:19;;;;;;;38.83;27.97;;;5.10;48.70;;;;;;20679;6829;117521;-73
2023/03/03 05:09:44;;;;;;;40.55;34.78;;;4.90;48.90;;;;;;20518;6829;327033;-72
2023/03/03 05:12:09;;;;;;;40.87;30.73;;;5.10;49.20;;;;;;20744;6829;120059;-76
2023/03/03 05:14:37;;;;;;;38.10;28.47;;;5.10;48.90;;;;;;20742;6829;117450;-75
2023/03/03 05:17:03;;;;;;;42.80;35.30;;;5.00;49.00;;;;;;20514;6829;310897;-75
2023/03/03 05:19:28;;;;;;;43.50;36.08;;;5.10;49.20;;;;;;20553;6829;279167;-75
2023/03/03 05:21:54;;;;;;;37.77;30.07;;;5.40;48.70;;;;;;20780;6829;117716;-77
2023/03/03 05:24:19;;;;;;;42.20;35.47;;;5.40;48.40;;;;;;20563;6829;309176;-75
2023/03/03 05:26:45;;;;;;;39.17;30.40;;;5.50;48.50;;;;;;20775;6829;123482;-75
2023/03/03 05:29:10;;;;;;;39.90;33.53;;;5.40;48.30;;;;;;20547;6829;308190;-76
2023/03/03 05:31:37;;;;;;;36.53;28.12;;;5.50;48.60;;;;;;20771;6827;122501;-76
2023/03/03 05:34:03;;;;;;;40.97;35.05;;;5.50;48.50;;;;;;20557;6828;287822;-76
2023/03/03 05:36:28;;;;;;;42.43;31.13;;;5.60;48.50;;;;;;20761;6828;117752;-77
2023/03/03 05:38:54;;;;;;;38.10;27.70;;;5.50;48.30;;;;;;20778;6828;117275;-77
2023/03/03 05:41:19;;;;;;;41.45;34.58;;;5.30;48.40;;;;;;20543;6828;277883;-74
2023/03/03 05:43:46;;;;;;;40.22;35.33;;;5.70;48.70;;;;;;20567;6828;315113;-76
2023/03/03 05:46:11;;;;;;;37.73;29.47;;;5.70;48.30;;;;;;20763;6828;118542;-76
2023/03/03 05:48:38;;;;;;;41.50;35.17;;;5.70;48.20;;;;;;20528;6828;278078;-77
2023/03/03 05:51:04;;;;;;;38.40;29.40;;;5.70;48.20;;;;;;20746;6828;119083;-74
2023/03/03 05:53:35;;;;;;;40.78;34.72;;;5.60;48.00;;;;;;20550;6828;281013;-75
2023/03/03 05:56:01;;;;;;;41.30;30.87;;;5.70;48.20;;;;;;20776;6828;118697;-75
2023/03/03 05:58:27;;;;;;;41.17;35.23;;;5.60;48.10;;;;;;20553;6828;307648;-74
2023/03/03 06:00:53;;;;;;;37.60;29.40;;;5.60;48.10;;;;;;20766;6828;121229;-74
2023/03/03 06:03:18;;;;;;;40.03;34.37;;;5.60;48.10;;;;;;20544;6828;312405;-76
2023/03/03 06:05:44;;;;;;;38.40;28.87;;;5.70;48.20;;;;;;20749;6828;116499;-77
2023/03/03 06:08:11;;;;;;;27.07;22.43;;;5.60;48.10;;;;;;20547;6828;308174;-81
2023/03/03 06:10:37;;;;;;;41.40;33.88;;;5.70;48.90;;;;;;20557;6829;277532;-76
2023/03/03 06:13:02;;;;;;;42.13;34.40;;;6.00;48.50;;;;;;20500;6829;337649;-76
2023/03/03 06:15:28;;;;;;;40.10;34.27;;;6.30;47.50;;;;;;20541;6829;311114;-74
2023/03/03 06:17:53;;;;;;;38.53;28.60;;;6.60;46.80;;;;;;20767;6829;117442;-74
2023/03/03 06:20:19;;;;;;;37.57;33.10;;;6.40;46.70;;;;;;20556;6829;308006;-76
2023/03/03 06:22:46;;;;;;;39.37;32.67;;;6.50;46.60;;;;;;20555;6829;308122;-76
2023/03/03 06:25:12;;;;;;;39.70;33.00;;;6.50;46.60;;;;;;20539;6829;281786;-75
2023/03/03 06:27:38;;;;;;;37.20;33.03;;;6.70;46.20;;;;;;20513;6829;278502;-76
2023/03/03 06:30:03;;;;;;;37.83;33.73;;;6.90;45.80;;;;;;20519;6829;278152;-76
2023/03/03 06:32:29;;;;;;;39.53;33.53;;;6.90;45.30;;;;;;20547;6829;283097;-78
2023/03/03 06:34:54;;;;;;;34.87;26.87;;;7.00;45.30;;;;;;20766;6829;122334;-74
2023/03/03 06:37:20;;;;;;;39.53;32.78;;;6.70;45.50;;;;;;20536;6829;322028;-72
2023/03/03 06:39:46;;;;;;;41.07;30.27;;;6.60;46.00;;;;;;20774;6829;117820;-73
2023/03/03 06:42:14;;;;;;;39.87;34.13;;;6.40;46.60;;;;;;20551;6829;282442;-75
2023/03/03 06:44:41;;;;;;;39.97;28.97;;;6.40;46.60;;;;;;20767;6827;118302;-75
2023/03/03 06:47:08;;;;;;;37.00;28.07;;;6.20;46.50;;;;;;20740;6828;118290;-75
2023/03/03 06:49:35;;;;;;;38.50;26.17;;;5.90;47.00;;;;;;20769;6828;118767;-77
2023/03/03 06:52:00;;;;;;;41.80;34.23;;;5.70;47.50;;;;;;20549;6828;311986;-74
2023/03/03 06:54:26;;;;;;;38.78;29.63;;;5.80;47.80;;;;;;20747;6828;118185;-74
2023/03/03 06:56:51;;;;;;;45.10;36.93;;;5.80;47.50;;;;;;20555;6828;308144;-75
2023/03/03 06:59:17;;;;;;;46.60;38.27;;;6.00;47.60;;;;;;20533;6828;284573;-77
2023/03/03 07:01:42;;;;;;;41.97;36.40;;;6.30;47.30;;;;;;20542;6828;306855;-76
2023/03/03 07:04:18;;;;;;;39.27;34.97;;;6.60;46.90;;;;;;20555;6828;282810;-77
2023/03/03 07:06:44;;;;;;;39.72;35.40;;;6.80;46.60;;;;;;20550;6828;336972;-77
2023/03/03 07:09:26;;;;;;;36.93;33.00;;;6.90;46.20;;;;;;20538;6828;278822;-75
2023/03/03 07:11:51;;;;;;;41.27;35.47;;;7.10;46.10;;;;;;20541;6828;307233;-76
2023/03/03 07:14:18;;;;;;;38.90;30.00;;;7.30;45.60;;;;;;20766;6828;118965;-75
2023/03/03 07:16:43;;;;;;;37.43;27.57;;;7.10;45.70;;;;;;20777;6828;117322;-75
2023/03/03 07:19:22;;;;;;;40.83;34.55;;;6.70;46.20;;;;;;20544;6828;278144;-75
2023/03/03 07:21:48;;;;;;;41.53;34.80;;;6.70;46.60;;;;;;20544;6829;279495;-75
2023/03/03 07:24:13;;;;;;;41.05;34.92;;;7.00;46.50;;;;;;20550;6829;307061;-75
2023/03/03 07:26:39;;;;;;;37.17;28.80;;;7.20;46.20;;;;;;20762;6829;118470;-76
2023/03/03 07:29:25;;;;;;;39.60;33.77;;;7.00;46.50;;;;;;20536;6829;337606;-76
2023/03/03 07:31:51;;;;;;;37.00;27.67;;;7.00;46.50;;;;;;20742;6829;118476;-76
2023/03/03 07:34:16;;;;;;;36.90;28.40;;;6.80;46.50;;;;;;20753;6829;117887;-76
2023/03/03 07:36:42;;;;;;;34.53;26.47;;;6.60;47.00;;;;;;20753;6829;118091;-76
2023/03/03 07:39:17;;;;;;;35.33;26.57;;;6.40;47.40;;;;;;20740;6829;118517;-75
2023/03/03 07:41:43;;;;;;;41.53;34.10;;;6.20;47.70;;;;;;20467;6829;278457;-76
2023/03/03 07:44:18;;;;;;;38.37;33.27;;;6.40;48.10;;;;;;20549;6829;308500;-77
2023/03/03 07:46:43;;;;;;;40.70;35.73;;;6.70;47.70;;;;;;20551;6829;306272;-75
2023/03/03 07:49:12;;;;;;;42.50;35.97;;;7.10;47.20;;;;;;20523;6829;279115;-75
2023/03/03 07:51:40;;;;;;;40.80;35.20;;;7.40;46.60;;;;;;20518;6829;338369;-75
2023/03/03 07:54:27;;;;;;;40.75;32.05;;;7.60;46.30;;;;;;20763;6829;117519;-75
2023/03/03 07:56:52;;;;;;;41.80;36.08;;;7.50;46.30;;;;;;20558;6827;278740;-75
2023/03/03 07:59:21;;;;;;;41.40;30.13;;;7.50;46.50;;;;;;20759;6828;118455;-76
2023/03/03 08:01:49;;;;;;;36.60;28.23;;;7.40;46.60;;;;;;20761;6828;118452;-75
2023/03/03 08:04:15;;;;;;;38.03;27.80;;;7.10;46.90;;;;;;20658;6828;121222;-75
2023/03/03 08:06:44;;;;;;;39.83;34.70;;;6.90;47.30;;;;;;20505;6828;308494;-75
2023/03/03 08:09:09;;;;;;;39.30;31.30;;;7.00;47.60;;;;;;20698;6828;120914;-75
2023/03/03 08:11:35;;;;;;;38.72;29.52;;;7.00;47.40;;;;;;20756;6828;123541;-77
2023/03/03 08:14:02;;;;;;;38.53;34.33;;;6.90;47.60;;;;;;20549;6828;310065;-75
2023/03/03 08:16:30;;;;;;;40.63;34.95;;;7.00;47.70;;;;;;20550;6828;305706;-75
2023/03/03 08:18:56;;;;;;;42.05;36.35;;;7.40;47.00;;;;;;20547;6828;315890;-75
2023/03/03 08:21:21;;;;;;;43.00;31.30;;;7.70;46.60;;;;;;20760;6828;118808;-76
2023/03/03 08:23:50;;;;;;;40.45;30.42;;;7.40;47.70;;;;;;20756;6828;116335;-74
2023/03/03 08:26:15;;;;;;;44.47;35.07;;;7.40;46.90;;;;;;20550;6828;321596;-75
2023/03/03 08:28:41;;;;;;;40.15;31.25;;;7.50;47.10;;;;;;20766;6828;118321;-74
2023/03/03 08:31:06;;;;;;;39.27;34.90;;;7.50;47.00;;;;;;20537;6828;308291;-75
2023/03/03 08:33:32;;;;;;;46.10;40.13;;;7.60;47.00;;;;;;20557;6829;307586;-75
2023/03/03 08:35:58;;;;;;;42.80;30.98;;;7.90;46.70;;;;;;20772;6829;117407;-74
2023/03/03 08:38:23;;;;;;;37.03;29.73;;;7.90;46.60;;;;;;20757;6829;117776;-75
2023/03/03 08:40:48;;;;;;;40.43;29.43;;;7.80;46.90;;;;;;20774;6829;118045;-75
2023/03/03 08:43:16;;;;;;;40.77;35.33;;;7.70;47.10;;;;;;20549;6829;278169;-75
2023/03/03 08:45:39;;;;;;;43.53;30.80;;;7.80;46.60;;;;;;20766;6829;117441;-75
2023/03/03 08:48:05;;;;;;;38.20;28.47;;;7.90;46.40;;;;;;20782;6829;117825;-75
2023/03/03 08:50:31;;;;;;;39.23;28.90;;;7.80;46.60;;;;;;20773;6829;119005;-74
2023/03/03 08:52:57;;;;;;;43.33;36.23;;;7.70;46.70;;;;;;20559;6829;298995;-74
2023/03/03 08:55:22;;;;;;;41.33;30.50;;;8.00;46.10;;;;;;20756;6829;122471;-74
2023/03/03 08:57:48;;;;;;;44.13;33.60;;;8.00;46.10;;;;;;20770;6829;117936;-74
2023/03/03 09:00:14;;;;;;;42.23;36.10;;;8.00;46.30;;;;;;20558;6829;305029;-74
2023/03/03 09:02:40;;;;;;;42.37;32.17;;;8.20;45.40;;;;;;20770;6829;118652;-74
2023/03/03 09:05:06;;;;;;;44.25;36.83;;;8.20;45.00;;;;;;20540;6829;312247;-75
2023/03/03 09:07:32;;;;;;;41.05;36.55;;;8.30;43.10;;;;;;20545;6826;312914;-74
2023/03/03 09:09:57;;;;;;;43.27;36.07;;;8.70;42.10;;;;;;20564;6828;314298;-74
2023/03/03 09:12:29;;;;;;;40.57;31.13;;;9.00;42.10;;;;;;20775;6828;117427;-74
2023/03/03 09:14:55;;;;;;;39.33;34.33;;;9.00;42.30;;;;;;20544;6828;292479;-74
2023/03/03 09:17:24;;;;;;;34.40;27.98;;;9.10;42.40;;;;;;20582;6828;119161;-74
2023/03/03 09:19:50;;;;;;;35.43;27.73;;;9.00;42.30;;;;;;20749;6828;119354;-74
2023/03/03 09:22:20;;;;;;;33.67;27.98;;;8.80;42.70;;;;;;20770;6828;117353;-76
2023/03/03 09:24:45;;;;;;;34.00;27.40;;;8.80;43.20;;;;;;20759;6828;118042;-74
2023/03/03 09:27:11;;;;;;;36.87;26.73;;;8.70;43.40;;;;;;20745;6828;118777;-76
2023/03/03 09:29:37;;;;;;;36.77;32.63;;;8.70;43.70;;;;;;20535;6828;278040;-74
2023/03/03 09:32:36;;;;;;;37.97;33.40;;;8.90;43.00;;;;;;20560;6828;304435;-75
2023/03/03 09:35:30;;;;;;;34.43;28.17;;;9.30;42.10;;;;;;20750;6828;117545;-75
2023/03/03 09:37:57;;;;;;;39.87;32.50;;;9.40;42.20;;;;;;20557;6828;307214;-74
2023/03/03 09:40:46;;;;;;;36.77;32.17;;;9.60;41.60;;;;;;20557;6828;278664;-74
2023/03/03 09:43:11;;;;;;;38.08;33.88;;;10.20;39.20;;;;;;20513;6828;307630;-75
2023/03/03 09:45:57;;;;;;;37.17;28.37;;;10.20;39.20;;;;;;20746;6829;117751;-74
2023/03/03 09:48:26;;;;;;;39.10;28.70;;;10.20;39.60;;;;;;20730;6829;118030;-74
2023/03/03 09:51:18;;;;;;;42.05;32.95;;;10.00;40.10;;;;;;20534;6829;336739;-75
2023/03/03 09:53:57;;;;;;;37.47;29.93;;;10.00;38.90;;;;;;20749;6829;119723;-76
2023/03/03 09:56:29;;;;;;;33.33;27.20;;;10.00;39.50;;;;;;20753;6829;117627;-74
2023/03/03 09:59:21;;;;;;;37.23;33.23;;;9.90;41.10;;;;;;20550;6829;309086;-75
2023/03/03 10:01:52;;;;;;;37.97;30.67;;;10.10;39.70;;;;;;20779;6829;117114;-73
2023/03/03 10:04:47;;;;;;;37.90;33.17;;;10.20;40.00;;;;;;20546;6829;307469;-74
2023/03/03 10:10:39;;;;;;;35.50;27.77;;;10.50;39.20;;;;;;19722;7173;120321;-75
2023/03/03 10:13:07;;;;;;;39.10;34.03;;;10.40;39.70;;;;;;19483;7173;317847;-76
2023/03/03 10:15:49;;;;;;;37.80;29.27;;;10.50;38.40;;;;;;19994;6839;117977;-75
2023/03/03 10:18:28;;;;;;;37.50;33.40;;;10.40;38.80;;;;;;20526;6838;278025;-74
2023/03/03 10:21:07;;;;;;;39.03;34.77;;;10.50;38.60;;;;;;20473;6839;308083;-74
2023/03/03 10:23:58;;;;;;;34.83;28.50;;;10.90;38.40;;;;;;20734;6839;122327;-74
2023/03/03 10:26:37;;;;;;;37.83;33.60;;;11.00;38.80;;;;;;20523;6839;307350;-74
2023/03/03 10:29:08;;;;;;;40.57;34.80;;;11.20;39.00;;;;;;19972;6839;308274;-75
2023/03/03 10:31:41;;;;;;;33.43;29.40;;;11.50;38.30;;;;;;20729;6839;118210;-75
2023/03/03 10:34:24;;;;;;;34.35;30.77;;;11.50;38.40;;;;;;20495;6839;279273;-75
2023/03/03 10:37:09;;;;;;;34.73;28.33;;;11.60;37.60;;;;;;20689;6839;122796;-75
2023/03/03 10:40:00;;;;;;;35.90;32.20;;;11.90;37.40;;;;;;20487;6839;283535;-75
2023/03/03 10:42:42;;;;;;;37.27;33.10;;;11.80;37.70;;;;;;20503;6839;312322;-78
2023/03/03 10:45:14;;;;;;;34.53;27.53;;;12.20;37.40;;;;;;20723;6839;117858;-76
2023/03/03 10:48:06;;;;;;;31.87;26.33;;;12.20;37.50;;;;;;20640;6855;118037;-76
2023/03/03 10:51:05;;;;;;;37.13;32.50;;;12.00;37.90;;;;;;20479;6855;325351;-75
2023/03/03 10:53:34;;;;;;;35.70;32.00;;;12.10;37.20;;;;;;20507;6844;307611;-78
2023/03/03 10:56:21;;;;;;;34.50;27.67;;;12.40;36.30;;;;;;20654;6855;117520;-77
2023/03/03 10:58:50;;;;;;;35.47;31.70;;;12.40;36.30;;;;;;20511;6841;336234;-78
2023/03/03 11:01:45;;;;;;;34.53;27.50;;;12.40;35.90;;;;;;20691;6841;141241;-78
2023/03/03 11:04:17;;;;;;;34.37;27.20;;;12.20;36.40;;;;;;20761;6840;117029;-77
2023/03/03 11:07:21;;;;;;;35.07;31.40;;;11.90;37.20;;;;;;20518;6854;281050;-80
2023/03/03 11:09:50;;;;;;;31.07;27.63;;;12.00;37.40;;;;;;20762;6838;120124;-78
2023/03/03 11:12:26;;;;;;;31.17;26.53;;;12.10;37.70;;;;;;20743;6838;117545;-76
2023/03/03 11:14:54;;;;;;;30.33;26.17;;;12.00;38.10;;;;;;20716;6838;118758;-73
2023/03/03 11:17:41;;;;;;;31.13;26.63;;;12.00;38.20;;;;;;20673;6839;118253;-76
2023/03/03 11:20:19;;;;;;;31.97;26.60;;;12.00;38.20;;;;;;20730;6839;119242;-77
2023/03/03 11:22:50;;;;;;;35.47;31.43;;;11.90;38.20;;;;;;20505;6839;317002;-76
2023/03/03 11:25:29;;;;;;;36.72;32.70;;;12.20;37.40;;;;;;20508;6839;339132;-77
2023/03/03 11:28:11;;;;;;;33.53;27.60;;;12.60;36.30;;;;;;20740;6839;117486;-77
2023/03/03 11:30:46;;;;;;;33.77;27.70;;;12.70;37.20;;;;;;20759;6838;116965;-74
2023/03/03 11:33:11;;;;;;;34.20;26.00;;;12.80;37.30;;;;;;20700;6843;118541;-75
2023/03/03 11:35:44;;;;;;;34.17;30.57;;;13.10;36.80;;;;;;20480;6843;316459;-71
2023/03/03 11:38:34;;;;;;;34.37;30.67;;;13.00;36.60;;;;;;20073;6858;304436;-77
2023/03/03 11:41:19;;;;;;;30.03;26.77;;;13.50;35.20;;;;;;20696;6841;118141;-76
2023/03/03 11:43:47;;;;;;;32.95;29.52;;;13.80;34.20;;;;;;20385;6840;307980;-78
2023/03/03 11:46:29;;;;;;;33.57;30.23;;;13.80;34.20;;;;;;20470;6855;308630;-76
2023/03/03 11:49:04;;;;;;;33.07;26.33;;;14.10;34.00;;;;;;20728;6843;118394;-78
2023/03/03 11:51:46;;;;;;;32.63;29.10;;;14.10;33.80;;;;;;20513;6839;307076;-77
2023/03/03 11:54:14;;;;;;;28.63;25.50;;;14.20;32.80;;;;;;20731;6838;117703;-76
2023/03/03 11:56:43;;;;;;;33.50;29.20;;;14.10;33.20;;;;;;20492;6838;304982;-76
2023/03/03 11:59:19;;;;;;;30.50;27.20;;;13.80;32.50;;;;;;20726;6838;118020;-78
2023/03/03 12:01:55;;;;;;;32.53;29.10;;;13.80;32.50;;;;;;20485;6838;310925;-77
2023/03/03 12:04:21;;;;;;;29.50;26.40;;;13.50;33.40;;;;;;20733;6838;122255;-75
2023/03/03 12:06:54;;;;;;;34.80;29.90;;;13.50;32.70;;;;;;20504;6838;307906;-77
2023/03/03 12:09:40;;;;;;;29.73;25.17;;;13.60;32.90;;;;;;20687;6839;119294;-78
2023/03/03 12:12:14;;;;;;;33.83;30.15;;;13.50;33.60;;;;;;20510;6839;308033;-80
2023/03/03 12:14:54;;;;;;;30.97;26.27;;;13.50;33.00;;;;;;20685;6839;122081;-75
2023/03/03 12:17:59;;;;;;;30.43;25.03;;;13.40;33.40;;;;;;20712;6839;118479;-77
2023/03/03 12:20:51;;;;;;;34.10;30.50;;;13.10;33.80;;;;;;20530;6839;307413;-77
2023/03/03 12:23:37;;;;;;;32.73;27.13;;;13.10;33.60;;;;;;20705;6839;117685;-77
2023/03/03 12:26:15;;;;;;;28.03;24.87;;;13.10;33.60;;;;;;20736;6839;119286;-79
2023/03/03 12:28:41;;;;;;;29.27;24.83;;;12.90;33.80;;;;;;20721;6839;117752;-76
2023/03/03 12:31:13;;;;;;;30.47;25.10;;;12.60;34.00;;;;;;20673;6839;118868;-78
2023/03/03 12:33:39;;;;;;;32.28;28.90;;;12.60;33.70;;;;;;20493;6843;307762;-78
2023/03/03 12:36:44;;;;;;;34.13;30.50;;;12.50;33.60;;;;;;20514;6843;338072;-75
2023/03/03 12:39:36;;;;;;;33.53;30.05;;;12.80;33.20;;;;;;20498;6843;308936;-74
2023/03/03 12:42:13;;;;;;;28.83;25.17;;;12.90;33.60;;;;;;20732;6842;117721;-73
2023/03/03 12:44:46;;;;;;;34.20;30.55;;;12.90;33.40;;;;;;20498;6843;309516;-74